Bristol, California
Current Conditions -  °F | °C
As of 6:53 PM on Monday 26 Jan 2015 (Local Time) from KSNA Reporting Station
Light Rain Light Rain  
Wind Chill: 61°   Ceiling: 4000
Heat Index: 61°   Visibility: 7mi
Dew Point: 52°   Wind: 7mph
Humidity: 72%   Direction: 100°E
Pressure: 30.09"   Gusts: NA
Location:  33.7458°N, 117.891°W
Report Text: KSNA 270253Z 10006KT 7SM -RA BKN040 OVC050 16/11 A3009 RMK AO2 SLP188 P0003 60011 T01610111 53014
Loading
Personal Weather Stations






























Interactive Weather Map New forecast layout! Learn more

10-Day Weather Forecast

Advertisements
Track Severe Weather on mobile